Time;durP1;ratioP1;P1;durP2;ratioP2;P2;SDS_P1;SDS_P2;PMS_P1;PMS_P2;Temp;Humidity;BMP_temperature;BMP_pressure;BME280_temperature;BME280_humidity;BME280_pressure;Samples;Min_cycle;Max_cycle;Signal;HPM_P1;HPM_P2
2023/12/20 00:00:13;;;;;;;8.50;2.90;;;8.40;96.70;;;9.86;69.86;101039.34;3080494;46;20523;-69
2023/12/20 00:02:46;;;;;;;10.73;2.43;;;8.40;96.80;;;9.84;69.97;101046.56;3081785;46;20518;-69
2023/12/20 00:05:15;;;;;;;9.03;2.40;;;8.40;96.80;;;9.80;70.13;101039.97;3082811;46;21023;-69
2023/12/20 00:07:43;;;;;;;7.43;2.40;;;8.30;96.70;;;9.76;70.01;101038.66;3082248;46;20521;-69
2023/12/20 00:10:13;;;;;;;10.10;2.17;;;8.30;96.80;;;9.73;70.16;101036.34;3082796;46;20427;-69
2023/12/20 00:12:41;;;;;;;13.80;2.20;;;8.30;96.80;;;9.70;70.10;101032.22;3082582;46;21116;-69
2023/12/20 00:15:10;;;;;;;7.13;1.93;;;8.20;96.80;;;9.68;70.08;101028.94;3082754;46;20427;-69
2023/12/20 00:17:38;;;;;;;12.67;2.00;;;8.20;96.90;;;9.66;70.21;101032.72;3082243;46;20520;-70
2023/12/20 00:20:07;;;;;;;10.93;2.20;;;8.20;96.90;;;9.63;70.20;101038.31;3082792;46;20451;-68
2023/12/20 00:22:36;;;;;;;10.90;2.67;;;8.20;96.90;;;9.60;70.15;101025.50;3082453;46;20461;-69
2023/12/20 00:25:05;;;;;;;10.23;2.63;;;8.10;96.90;;;9.59;70.19;101036.97;3082228;46;20529;-69
2023/12/20 00:27:33;;;;;;;10.23;2.70;;;8.20;97.00;;;9.55;70.37;101018.88;3081739;46;20447;-69
2023/12/20 00:30:02;;;;;;;7.47;2.13;;;8.10;96.90;;;9.51;70.18;101030.72;3082511;46;20424;-69
2023/12/20 00:32:30;;;;;;;8.53;2.53;;;8.10;96.90;;;9.48;70.08;101025.75;3082614;46;20569;-69
2023/12/20 00:34:59;;;;;;;14.33;2.33;;;8.00;96.80;;;9.45;70.54;101028.75;3082302;46;20431;-67
2023/12/20 00:37:27;;;;;;;11.13;2.30;;;8.00;96.90;;;9.43;70.55;101030.72;3081774;46;20467;-70
2023/12/20 00:39:55;;;;;;;10.23;2.37;;;8.00;96.90;;;9.41;70.58;101034.47;3082355;46;20431;-67
2023/12/20 00:42:24;;;;;;;11.57;2.43;;;7.90;96.90;;;9.39;70.57;101026.72;3080951;46;20428;-69
2023/12/20 00:44:52;;;;;;;9.33;3.13;;;7.90;96.90;;;9.37;70.33;101020.81;3082401;46;20509;-67
2023/12/20 00:47:21;;;;;;;8.27;1.90;;;7.90;96.90;;;9.35;70.72;101014.91;3081944;46;20439;-69
2023/12/20 00:49:50;;;;;;;10.47;2.50;;;7.90;97.00;;;9.36;70.49;101005.22;3081133;46;21012;-69
2023/12/20 00:52:19;;;;;;;8.20;2.10;;;7.90;97.00;;;9.36;70.54;101005.22;3082440;46;21020;-69
2023/12/20 00:54:47;;;;;;;12.00;2.57;;;7.80;97.00;;;9.33;70.56;101006.38;3082557;46;20454;-69
2023/12/20 00:57:15;;;;;;;4.23;2.00;;;7.80;97.10;;;9.31;70.44;101013.59;3081838;46;20484;-68
2023/12/20 00:59:44;;;;;;;6.97;2.10;;;7.80;97.10;;;9.29;70.41;101020.81;3082224;46;20456;-68
2023/12/20 01:02:12;;;;;;;12.87;2.67;;;7.80;97.00;;;9.28;70.40;101002.56;3081832;46;20424;-69
2023/12/20 01:04:40;;;;;;;12.77;2.43;;;7.80;97.10;;;9.25;70.41;101003.72;3082144;46;21107;-69
2023/12/20 01:07:09;;;;;;;9.87;2.50;;;7.80;97.10;;;9.23;70.64;101000.44;3081636;46;20456;-69
2023/12/20 01:09:37;;;;;;;11.53;2.50;;;7.70;97.10;;;9.20;70.69;100990.22;3082541;46;20513;-69
2023/12/20 01:12:06;;;;;;;8.67;2.33;;;7.70;97.10;;;9.18;70.90;100991.38;3082321;46;20438;-71
2023/12/20 01:14:34;;;;;;;7.80;2.13;;;7.70;97.10;;;9.15;70.53;100989.88;3081563;46;20452;-69
2023/12/20 01:17:03;;;;;;;9.87;2.50;;;7.70;97.40;;;9.13;70.63;100999.72;3082152;46;20463;-69
2023/12/20 01:19:31;;;;;;;11.70;2.90;;;7.70;97.20;;;9.11;70.87;101006.94;3082223;46;20435;-69
2023/12/20 01:22:00;;;;;;;10.33;2.47;;;7.60;97.10;;;9.10;71.14;101010.56;3081837;46;21071;-68
2023/12/20 01:24:28;;;;;;;6.83;2.00;;;7.60;97.20;;;9.09;70.84;101014.16;3081520;46;20928;-69
2023/12/20 01:26:57;;;;;;;14.00;2.83;;;7.60;97.30;;;9.11;71.20;101006.13;3081356;46;21006;-69
2023/12/20 01:29:25;;;;;;;8.90;2.60;;;7.60;97.30;;;9.12;71.20;100987.59;3082026;46;20452;-68
2023/12/20 01:31:54;;;;;;;7.83;2.03;;;7.60;97.30;;;9.11;71.00;100985.94;3081560;46;21019;-69
2023/12/20 01:34:22;;;;;;;11.13;2.37;;;7.60;97.30;;;9.10;70.99;100984.31;3081821;46;20482;-69
2023/12/20 01:36:51;;;;;;;12.20;2.47;;;7.60;97.40;;;9.08;71.07;100981.00;3081712;46;20464;-69
2023/12/20 01:39:19;;;;;;;15.97;3.03;;;7.60;97.30;;;9.07;71.09;100987.25;3081874;46;20431;-69
2023/12/20 01:41:55;;;;;;;13.63;2.47;;;7.60;97.30;;;9.04;70.98;100995.44;3080858;46;20455;-69
2023/12/20 01:44:24;;;;;;;9.97;2.57;;;7.60;97.40;;;9.05;71.18;100991.84;3081591;46;20513;-69
2023/12/20 01:46:52;;;;;;;9.07;2.23;;;7.60;97.40;;;9.07;71.03;100979.38;3081684;46;20443;-69
2023/12/20 01:49:22;;;;;;;12.17;2.77;;;7.60;97.40;;;9.10;71.22;100971.19;3080661;46;20431;-69
2023/12/20 01:51:51;;;;;;;9.47;2.63;;;7.60;97.50;;;9.12;71.29;100965.75;3081370;46;20459;-69
2023/12/20 01:54:20;;;;;;;11.17;3.30;;;7.60;97.40;;;9.12;71.05;100965.75;3081439;46;20521;-69
2023/12/20 01:56:50;;;;;;;11.97;2.50;;;7.60;97.40;;;9.09;71.07;100952.94;3081574;46;20468;-69
2023/12/20 01:59:21;;;;;;;10.30;1.93;;;7.60;97.30;;;9.08;71.23;100960.00;3081930;46;20458;-68
2023/12/20 02:01:49;;;;;;;9.90;2.70;;;7.60;97.30;;;9.08;71.07;100967.06;3081675;46;20427;-67
2023/12/20 02:04:18;;;;;;;7.30;2.30;;;7.60;97.20;;;9.05;71.22;100962.97;3081436;46;20973;-69
2023/12/20 02:06:48;;;;;;;8.73;2.20;;;7.60;97.20;;;9.03;71.05;100970.19;3080506;46;20678;-69
2023/12/20 02:09:16;;;;;;;5.40;2.33;;;7.60;97.20;;;9.02;71.19;100960.66;3081427;46;20431;-69
2023/12/20 02:11:45;;;;;;;14.40;2.90;;;7.50;97.20;;;9.00;71.03;100965.25;3081036;46;21106;-68
2023/12/20 02:14:13;;;;;;;13.97;2.23;;;7.60;97.20;;;9.00;70.92;100961.78;3081533;46;21084;-69
2023/12/20 02:16:42;;;;;;;14.33;2.13;;;7.50;97.20;;;8.99;71.22;100954.88;3081026;46;20436;-69
2023/12/20 02:19:15;;;;;;;9.87;2.00;;;7.50;97.20;;;8.98;71.20;100959.31;3080963;46;20424;-67
2023/12/20 02:21:43;;;;;;;11.03;2.33;;;7.50;97.20;;;8.96;71.11;100956.03;3081095;46;20464;-70
2023/12/20 02:24:12;;;;;;;11.13;2.40;;;7.50;97.20;;;8.95;71.09;100943.88;3080818;46;20440;-69
2023/12/20 02:26:41;;;;;;;10.03;2.27;;;7.50;97.20;;;8.94;71.05;100942.22;3081068;46;20434;-69
2023/12/20 02:29:13;;;;;;;11.33;2.00;;;7.50;97.30;;;8.94;71.26;100941.44;3081325;46;20517;-69
2023/12/20 02:31:41;;;;;;;10.83;2.40;;;7.50;97.30;;;8.93;71.29;100940.59;3080979;46;20431;-69
2023/12/20 02:34:10;;;;;;;8.37;2.10;;;7.40;97.30;;;8.95;71.35;100935.19;3081462;46;20427;-69
2023/12/20 02:36:38;;;;;;;7.30;2.30;;;7.50;97.40;;;8.95;71.36;100937.81;3080763;46;20428;-68
2023/12/20 02:39:07;;;;;;;10.13;2.40;;;7.40;97.30;;;8.96;71.20;100935.03;3081256;46;20428;-69
2023/12/20 02:41:35;;;;;;;8.60;2.20;;;7.50;97.40;;;8.98;71.01;100927.81;3079934;46;20513;-69
2023/12/20 02:44:04;;;;;;;8.80;2.07;;;7.50;97.30;;;9.00;71.16;100920.59;3081061;46;20428;-68
2023/12/20 02:46:32;;;;;;;5.77;2.10;;;7.50;97.40;;;9.03;71.15;100928.19;3080772;46;20427;-69
2023/12/20 02:49:01;;;;;;;13.10;2.73;;;7.50;97.40;;;9.05;71.15;100920.97;3080922;46;20455;-69
2023/12/20 02:51:29;;;;;;;11.53;2.80;;;7.50;97.40;;;9.10;71.07;100920.47;3081028;46;20427;-69
2023/12/20 02:53:58;;;;;;;14.47;2.53;;;7.50;97.40;;;9.12;70.91;100919.34;3081116;46;21007;-69
2023/12/20 02:56:26;;;;;;;7.90;2.43;;;7.50;97.40;;;9.18;70.99;100913.44;3080820;46;21122;-69
2023/12/20 02:58:54;;;;;;;11.20;3.23;;;7.60;97.40;;;9.20;70.59;100911.44;3081347;46;20493;-69
2023/12/20 03:01:23;;;;;;;13.33;2.83;;;7.60;97.30;;;9.25;70.72;100914.41;3080928;46;20450;-69
2023/12/20 03:03:51;;;;;;;5.87;2.03;;;7.60;97.20;;;9.27;70.51;100907.19;3081402;46;20456;-68
2023/12/20 03:06:20;;;;;;;8.97;2.37;;;7.60;97.20;;;9.31;70.59;100898.03;3080777;46;20972;-68
2023/12/20 03:08:49;;;;;;;9.70;2.53;;;7.60;97.20;;;9.35;70.31;100899.34;3080542;46;20481;-69
2023/12/20 03:11:17;;;;;;;7.47;2.30;;;7.70;97.20;;;9.37;70.37;100897.38;3080726;46;20431;-69
2023/12/20 03:13:45;;;;;;;12.73;2.30;;;7.70;97.10;;;9.40;70.55;100894.44;3080936;46;20456;-68
2023/12/20 03:16:16;;;;;;;11.50;2.30;;;7.70;97.10;;;9.42;70.17;100889.81;3080573;46;20431;-68
2023/12/20 03:18:44;;;;;;;11.90;2.70;;;7.80;97.10;;;9.45;69.97;100899.19;3080089;46;21036;-69
2023/12/20 03:21:12;;;;;;;15.37;2.50;;;7.80;96.90;;;9.46;70.15;100896.38;3080429;46;20439;-69
2023/12/20 03:23:41;;;;;;;8.60;2.43;;;7.80;96.90;;;9.47;70.07;100908.56;3080764;46;20932;-69
2023/12/20 03:26:10;;;;;;;12.07;2.07;;;7.80;96.90;;;9.48;69.88;100898.88;3080760;46;20427;-68
2023/12/20 03:28:38;;;;;;;9.80;2.53;;;7.80;96.80;;;9.47;69.67;100892.78;3080280;46;20460;-70
2023/12/20 03:31:07;;;;;;;8.77;2.30;;;7.90;96.70;;;9.49;69.73;100897.88;3080453;46;21001;-68
2023/12/20 03:33:35;;;;;;;12.53;2.83;;;7.90;96.60;;;9.50;69.58;100892.47;3080605;46;21012;-69
2023/12/20 03:36:04;;;;;;;7.67;2.33;;;7.80;96.60;;;9.49;69.71;100893.44;3081188;46;21092;-69
2023/12/20 03:38:33;;;;;;;12.53;2.93;;;7.90;96.70;;;9.51;69.30;100888.84;3082072;46;21001;-69
2023/12/20 03:41:01;;;;;;;10.70;2.50;;;7.90;96.90;;;9.53;69.63;100886.06;3082045;46;20446;-69
2023/12/20 03:43:30;;;;;;;11.03;2.50;;;7.90;96.60;;;9.54;69.35;100885.91;3082827;46;20430;-68
2023/12/20 03:45:59;;;;;;;7.83;2.63;;;7.90;96.60;;;9.56;69.51;100885.72;3082670;46;20463;-68
2023/12/20 03:48:28;;;;;;;15.10;3.23;;;7.90;96.60;;;9.58;69.28;100872.44;3081858;46;20466;-68
2023/12/20 03:50:57;;;;;;;7.83;2.43;;;8.00;96.60;;;9.60;69.55;100880.97;3082564;46;20452;-69
2023/12/20 03:53:25;;;;;;;13.80;2.80;;;8.00;96.70;;;9.62;69.43;100873.75;3083022;46;20426;-69
2023/12/20 03:55:54;;;;;;;11.93;2.83;;;8.00;96.60;;;9.61;69.12;100875.53;3083048;46;20446;-69
2023/12/20 03:58:22;;;;;;;12.47;3.13;;;8.00;96.60;;;9.63;69.42;100870.13;3082020;46;20463;-69
2023/12/20 04:00:50;;;;;;;8.83;2.93;;;8.00;96.60;;;9.64;69.18;100863.88;3082859;46;20473;-69
2023/12/20 04:03:19;;;;;;;11.43;2.83;;;8.00;96.60;;;9.64;69.15;100863.88;3082834;46;20431;-69
2023/12/20 04:05:47;;;;;;;10.63;2.70;;;8.00;96.50;;;9.66;69.20;100854.03;3083139;46;20435;-69
2023/12/20 04:08:16;;;;;;;13.60;3.40;;;8.00;96.50;;;9.66;69.26;100859.28;3082233;46;20451;-69
2023/12/20 04:10:44;;;;;;;14.77;3.57;;;8.00;96.50;;;9.64;69.04;100856.00;3082608;46;20423;-68
2023/12/20 04:13:13;;;;;;;8.53;2.77;;;8.00;96.40;;;9.63;69.20;100854.38;3083041;46;20431;-68
2023/12/20 04:15:41;;;;;;;11.60;4.00;;;8.00;96.40;;;9.63;68.85;100855.16;3082679;46;21083;-69
2023/12/20 04:18:10;;;;;;;10.67;3.13;;;8.00;96.40;;;9.64;68.86;100848.13;3082120;46;20466;-69
2023/12/20 04:20:38;;;;;;;9.63;2.80;;;8.00;96.30;;;9.65;68.97;100844.50;3082560;46;21066;-69
2023/12/20 04:23:06;;;;;;;12.43;3.60;;;8.00;96.30;;;9.66;68.90;100846.97;3082533;46;20431;-69
2023/12/20 04:25:35;;;;;;;15.73;3.73;;;8.00;96.30;;;9.67;68.61;100845.16;3082568;46;20431;-69
2023/12/20 04:28:04;;;;;;;11.77;3.13;;;8.00;96.20;;;9.68;68.67;100838.91;3082231;46;20460;-69
2023/12/20 04:30:33;;;;;;;8.93;2.80;;;8.10;96.10;;;9.70;68.73;100837.75;3082805;46;20516;-69
2023/12/20 04:33:02;;;;;;;14.30;3.40;;;8.10;96.20;;;9.72;68.71;100845.50;3082189;46;20459;-68
2023/12/20 04:35:30;;;;;;;12.93;3.23;;;8.10;96.20;;;9.72;68.45;100837.59;3082748;46;20455;-68
2023/12/20 04:37:59;;;;;;;7.50;3.13;;;8.10;96.10;;;9.74;68.53;100835.63;3081556;46;20439;-69
2023/12/20 04:40:27;;;;;;;7.63;3.27;;;8.10;96.10;;;9.76;68.50;100844.16;3082394;46;20455;-68
2023/12/20 04:42:55;;;;;;;10.40;4.37;;;8.10;96.10;;;9.74;68.08;100838.25;3081594;46;20524;-69
2023/12/20 04:45:24;;;;;;;10.53;4.03;;;8.10;96.00;;;9.72;68.15;100837.59;3082414;46;20471;-69
2023/12/20 04:47:53;;;;;;;9.93;4.33;;;8.20;96.00;;;9.67;68.39;100835.47;3080878;46;20439;-67
2023/12/20 04:50:21;;;;;;;13.03;4.13;;;8.10;95.90;;;9.64;68.38;100834.97;3081968;46;20427;-68
2023/12/20 04:52:51;;;;;;;10.40;4.20;;;8.10;95.90;;;9.63;68.40;100843.84;3081508;46;21045;-69
2023/12/20 04:55:19;;;;;;;13.70;4.57;;;8.10;96.00;;;9.62;68.32;100839.56;3082366;46;20457;-69
2023/12/20 04:57:48;;;;;;;15.70;4.10;;;8.10;96.00;;;9.62;68.35;100826.44;3081720;46;20442;-67
2023/12/20 05:00:17;;;;;;;8.77;3.77;;;8.10;96.00;;;9.64;68.61;100835.81;3082392;46;20451;-68
2023/12/20 05:02:45;;;;;;;7.00;3.80;;;8.10;96.10;;;9.67;68.50;100826.75;3082148;46;20456;-69
2023/12/20 05:05:15;;;;;;;12.43;4.40;;;8.00;96.10;;;9.67;68.30;100819.72;3081995;46;20580;-69
2023/12/20 05:07:44;;;;;;;12.07;4.07;;;8.10;96.20;;;9.67;68.44;100811.00;3081214;46;20436;-69
2023/12/20 05:10:12;;;;;;;11.57;3.57;;;8.10;96.10;;;9.67;68.54;100808.38;3082142;46;20528;-68
2023/12/20 05:12:41;;;;;;;10.50;3.83;;;8.10;96.10;;;9.68;68.31;100802.09;3082380;46;20428;-68
2023/12/20 05:15:09;;;;;;;15.90;4.47;;;8.10;96.20;;;9.68;68.87;100802.94;3082279;46;20431;-69
2023/12/20 05:17:38;;;;;;;14.67;4.57;;;8.10;96.20;;;9.67;68.44;100816.25;3081387;46;20442;-67
2023/12/20 05:20:08;;;;;;;15.50;3.43;;;8.10;96.10;;;9.70;68.51;100813.31;3082210;46;20580;-68
2023/12/20 05:22:36;;;;;;;7.63;3.40;;;8.10;96.20;;;9.73;68.75;100813.78;3081306;46;21556;-68
2023/12/20 05:25:05;;;;;;;12.73;3.43;;;8.10;96.20;;;9.77;68.67;100814.28;3082001;46;20452;-69
2023/12/20 05:27:36;;;;;;;10.63;3.60;;;8.10;96.20;;;9.78;68.18;100815.91;3081175;46;21093;-69
2023/12/20 05:30:06;;;;;;;8.03;3.03;;;8.20;96.20;;;9.76;68.37;100812.63;3082269;46;21053;-68
2023/12/20 05:32:34;;;;;;;15.87;3.90;;;8.20;96.20;;;9.74;68.29;100820.69;3081820;46;20427;-69
2023/12/20 05:35:03;;;;;;;10.23;3.67;;;8.20;96.20;;;9.76;68.45;100810.00;3081630;46;20503;-69
2023/12/20 05:37:31;;;;;;;12.90;3.97;;;8.20;96.20;;;9.74;68.44;100809.34;3080966;46;20533;-69
2023/12/20 05:40:00;;;;;;;9.00;3.60;;;8.20;96.10;;;9.71;68.50;100805.25;3081810;46;20581;-70
2023/12/20 05:42:28;;;;;;;20.70;3.67;;;8.20;96.10;;;9.68;68.49;100802.09;3080843;46;20427;-69
2023/12/20 05:44:56;;;;;;;10.13;3.20;;;8.20;96.00;;;9.64;68.57;100808.69;3081901;46;20428;-69
2023/12/20 05:47:25;;;;;;;16.73;4.87;;;8.10;95.90;;;9.62;68.53;100816.75;3080788;46;20440;-69
2023/12/20 05:49:53;;;;;;;14.27;3.83;;;8.10;95.90;;;9.65;68.50;100823.50;3081379;46;20449;-68
2023/12/20 05:52:22;;;;;;;11.47;4.10;;;8.10;96.00;;;9.69;68.69;100816.91;3081767;46;20462;-67
2023/12/20 05:54:50;;;;;;;17.20;3.40;;;8.10;96.00;;;9.72;68.61;100821.84;3081657;46;20427;-68
2023/12/20 05:57:19;;;;;;;14.30;3.37;;;8.10;96.00;;;9.72;68.13;100803.44;3080936;46;20562;-69
2023/12/20 05:59:47;;;;;;;11.10;3.60;;;8.10;96.00;;;9.73;68.30;100798.00;3080517;46;21100;-69
2023/12/20 06:02:15;;;;;;;9.97;3.27;;;8.20;96.00;;;9.75;68.23;100800.44;3081529;46;20434;-68
2023/12/20 06:04:44;;;;;;;15.87;3.50;;;8.20;96.00;;;9.79;68.07;100799.16;3081480;46;20448;-69
2023/12/20 06:07:14;;;;;;;13.33;3.63;;;8.20;96.10;;;9.79;68.23;100786.00;3080768;46;20492;-69
2023/12/20 06:09:43;;;;;;;13.13;3.90;;;8.20;96.10;;;9.82;68.04;100790.91;3080888;46;21129;-69
2023/12/20 06:12:11;;;;;;;17.00;3.60;;;8.20;96.00;;;9.80;68.16;100779.75;3081205;46;20440;-69
2023/12/20 06:14:40;;;;;;;18.60;4.50;;;8.20;95.90;;;9.82;68.09;100785.66;3081324;46;20427;-69
2023/12/20 06:17:08;;;;;;;11.57;3.40;;;8.20;95.90;;;9.84;68.35;100784.50;3081215;46;21027;-69
2023/12/20 06:19:37;;;;;;;14.33;3.27;;;8.20;96.00;;;9.84;68.08;100788.97;3081673;46;20440;-69
2023/12/20 06:22:05;;;;;;;20.83;4.80;;;8.30;96.00;;;9.88;67.83;100790.25;3081231;46;20451;-68
2023/12/20 06:24:34;;;;;;;17.67;4.77;;;8.30;96.00;;;9.91;68.07;100795.19;3081265;46;20527;-68
2023/12/20 06:27:03;;;;;;;14.73;3.87;;;8.30;96.00;;;9.94;67.99;100794.81;3080731;46;20448;-69
2023/12/20 06:29:31;;;;;;;16.07;4.73;;;8.30;96.00;;;9.97;68.10;100783.97;3081271;46;20435;-69
2023/12/20 06:32:00;;;;;;;24.67;4.20;;;8.30;96.00;;;9.99;67.96;100774.09;3081398;46;20521;-68
2023/12/20 06:34:28;;;;;;;20.10;3.47;;;8.40;96.00;;;10.02;67.94;100771.97;3081106;46;21039;-69
2023/12/20 06:36:57;;;;;;;16.97;3.63;;;8.40;96.00;;;10.05;67.98;100770.81;3080788;46;20489;-69
2023/12/20 06:39:25;;;;;;;14.03;3.80;;;8.40;96.00;;;10.07;67.92;100768.84;3081174;46;21102;-69
2023/12/20 06:41:54;;;;;;;13.87;4.13;;;8.40;96.00;;;10.09;67.75;100756.31;3080152;46;20439;-69
2023/12/20 06:44:22;;;;;;;20.10;4.50;;;8.50;96.00;;;10.10;67.50;100742.19;3080633;46;20431;-69
2023/12/20 06:46:50;;;;;;;18.47;4.40;;;8.50;95.80;;;10.12;67.70;100737.63;3080679;46;20440;-68
2023/12/20 06:49:19;;;;;;;12.53;3.80;;;8.50;95.80;;;10.12;67.33;100743.69;3080078;46;20432;-68
2023/12/20 06:51:47;;;;;;;16.80;3.90;;;8.50;95.70;;;10.13;67.71;100742.69;3081090;46;20478;-68
2023/12/20 06:54:16;;;;;;;12.80;3.37;;;8.50;95.60;;;10.15;67.36;100745.97;3080911;46;20518;-68
2023/12/20 06:56:44;;;;;;;12.67;3.30;;;8.50;95.50;;;10.17;67.18;100746.59;3080179;46;20498;-69
2023/12/20 06:59:12;;;;;;;18.33;4.37;;;8.60;95.60;;;10.21;67.22;100744.47;3080306;46;20439;-69
2023/12/20 07:01:41;;;;;;;16.30;4.50;;;8.60;95.60;;;10.25;67.08;100748.38;3079939;46;20459;-69
2023/12/20 07:04:30;;;;;;;16.17;4.03;;;8.60;95.60;;;10.21;67.26;100744.47;3078765;46;20982;-69
2023/12/20 07:07:00;;;;;;;20.47;4.53;;;8.60;95.60;;;10.22;67.18;100740.88;3077912;46;20468;-69
2023/12/20 07:09:28;;;;;;;14.80;3.97;;;8.60;95.50;;;10.23;67.20;100742.47;3080713;46;21005;-69
2023/12/20 07:11:57;;;;;;;18.70;4.97;;;8.60;95.60;;;10.25;67.44;100745.75;3082148;46;20443;-69
2023/12/20 07:14:25;;;;;;;12.57;4.07;;;8.70;95.60;;;10.26;67.20;100736.06;3082522;46;21119;-68
2023/12/20 07:16:54;;;;;;;17.80;5.00;;;8.60;95.50;;;10.30;67.12;100721.56;3081415;46;20449;-69
2023/12/20 07:19:22;;;;;;;13.50;4.13;;;8.70;95.50;;;10.27;67.08;100741.13;3082749;46;20431;-69
2023/12/20 07:21:55;;;;;;;19.40;4.90;;;8.70;95.50;;;10.26;66.93;100736.88;3082613;46;21021;-69
2023/12/20 07:24:25;;;;;;;13.47;4.10;;;8.70;95.50;;;10.28;67.09;100727.00;3079797;46;20467;-69
2023/12/20 07:26:53;;;;;;;15.97;4.00;;;8.70;95.40;;;10.30;67.15;100730.28;3078062;46;21375;-68
2023/12/20 07:29:21;;;;;;;12.50;4.17;;;8.70;95.50;;;10.29;66.94;100733.91;3080544;46;20479;-67
2023/12/20 07:31:51;;;;;;;17.13;4.27;;;8.70;95.40;;;10.31;66.83;100734.56;3081847;46;20472;-69
2023/12/20 07:34:21;;;;;;;14.77;4.33;;;8.70;95.40;;;10.32;66.87;100724.88;3081060;43;20481;-69
2023/12/20 07:36:58;;;;;;;14.83;3.67;;;8.70;95.40;;;10.33;67.19;100729.94;3079915;46;20438;-69
2023/12/20 07:39:41;;;;;;;19.47;5.00;;;8.70;95.50;;;10.34;66.93;100755.25;3081732;46;20482;-69
2023/12/20 07:42:17;;;;;;;11.60;3.80;;;8.70;95.50;;;10.33;67.29;100732.56;3077780;46;21128;-69
2023/12/20 07:44:53;;;;;;;20.93;4.33;;;8.80;95.40;;;10.34;66.98;100736.81;3080106;43;20556;-69
2023/12/20 07:47:24;;;;;;;17.33;4.07;;;8.80;95.40;;;10.36;66.79;100734.03;3081002;46;20471;-70
2023/12/20 07:49:56;;;;;;;11.83;4.37;;;8.80;95.40;;;10.36;66.85;100734.88;3081189;46;20456;-70
2023/12/20 07:52:26;;;;;;;15.60;3.87;;;8.80;95.50;;;10.37;67.14;100718.06;3079598;46;21126;-70
2023/12/20 07:54:55;;;;;;;13.17;4.20;;;8.80;95.50;;;10.38;66.72;100717.09;3080197;46;21310;-68
2023/12/20 07:57:30;;;;;;;13.13;3.40;;;8.80;95.50;;;10.41;66.91;100719.34;3079112;46;20463;-69
2023/12/20 08:00:34;;;;;;;11.67;4.07;;;8.80;95.60;;;10.40;67.04;100704.56;3078790;43;20455;-70
2023/12/20 08:03:04;;;;;;;15.87;4.50;;;8.80;95.60;;;10.41;67.28;100711.47;3081599;46;20474;-69
2023/12/20 08:05:32;;;;;;;15.33;4.90;;;8.80;95.60;;;10.42;67.22;100702.59;3082171;46;20458;-68
2023/12/20 08:08:01;;;;;;;16.17;4.70;;;8.90;95.60;;;10.42;67.14;100709.66;3081384;46;20484;-68
2023/12/20 08:10:30;;;;;;;17.87;4.93;;;8.90;95.60;;;10.44;67.19;100697.13;3080375;43;20481;-69
2023/12/20 08:12:59;;;;;;;14.57;4.60;;;8.80;95.50;;;10.46;67.19;100695.97;3081993;46;20460;-69
2023/12/20 08:15:29;;;;;;;16.87;5.20;;;8.80;95.50;;;10.48;67.29;100694.00;3081173;46;20432;-69
2023/12/20 08:17:58;;;;;;;19.77;4.63;;;8.90;95.50;;;10.50;67.14;100701.72;3080294;46;20440;-70
2023/12/20 08:20:28;;;;;;;13.63;4.30;;;8.90;95.50;;;10.51;66.97;100704.16;3082042;46;20977;-69
2023/12/20 08:23:06;;;;;;;18.23;4.20;;;8.90;95.50;;;10.53;66.73;100690.84;3078812;46;21219;-70
2023/12/20 08:25:35;;;;;;;20.37;5.00;;;8.90;95.40;;;10.54;66.81;100688.03;3080115;43;20485;-70
2023/12/20 08:28:07;;;;;;;15.73;5.13;;;8.90;95.40;;;10.57;67.02;100681.59;3079946;46;20480;-69
2023/12/20 08:30:40;;;;;;;14.23;4.07;;;8.90;95.40;;;10.61;66.80;100682.88;3079525;46;20513;-71
2023/12/20 08:33:16;;;;;;;16.07;3.97;;;9.00;95.40;;;10.65;66.59;100679.72;3075325;46;20458;-69
2023/12/20 08:35:47;;;;;;;11.47;4.30;;;9.00;95.40;;;10.69;66.84;100681.03;3079750;46;20490;-70
2023/12/20 08:38:16;;;;;;;22.23;3.97;;;9.00;95.40;;;10.76;66.63;100674.06;3079380;46;20472;-69
2023/12/20 08:40:45;;;;;;;12.67;3.60;;;9.10;95.50;;;10.79;66.39;100686.03;3080345;46;21328;-68
2023/12/20 08:43:19;;;;;;;18.27;4.20;;;9.10;95.40;;;10.81;66.59;100666.44;3081053;46;20455;-69
2023/12/20 08:45:52;;;;;;;12.47;4.23;;;9.10;95.40;;;10.80;66.21;100667.44;3080941;43;20431;-68
2023/12/20 08:48:21;;;;;;;15.97;4.23;;;9.20;95.30;;;10.80;66.58;100658.72;3079820;46;20435;-69
2023/12/20 08:50:51;;;;;;;17.87;4.53;;;9.20;95.30;;;10.82;66.45;100654.91;3079997;46;20452;-69
2023/12/20 08:53:20;;;;;;;14.67;4.73;;;9.20;95.30;;;10.85;66.42;100646.66;3081875;46;20439;-70
2023/12/20 08:55:48;;;;;;;11.47;3.50;;;9.20;95.30;;;10.89;66.46;100642.66;3080802;46;20571;-70
2023/12/20 08:58:16;;;;;;;11.33;4.27;;;9.30;95.30;;;10.94;66.04;100636.03;3080308;43;20435;-69
2023/12/20 09:00:45;;;;;;;17.40;4.63;;;9.20;95.20;;;10.95;66.20;100648.22;3081281;46;21170;-69
2023/12/20 09:03:14;;;;;;;17.57;4.23;;;9.30;95.30;;;10.93;66.26;100655.47;3077762;46;20596;-69
2023/12/20 09:05:53;;;;;;;15.33;4.50;;;9.30;95.30;;;10.93;66.15;100642.31;3081101;46;20450;-71
2023/12/20 09:08:21;;;;;;;10.77;3.83;;;9.30;95.30;;;10.88;66.18;100651.56;3080226;46;20475;-69
2023/12/20 09:10:50;;;;;;;14.63;4.10;;;9.30;95.30;;;10.86;66.51;100639.59;3080874;46;20526;-69
2023/12/20 09:13:20;;;;;;;12.10;3.60;;;9.30;95.40;;;10.83;66.89;100630.22;3081500;46;20549;-69
2023/12/20 09:15:51;;;;;;;10.20;4.20;;;9.30;95.60;;;10.77;67.26;100641.44;3077527;46;20504;-69
2023/12/20 09:18:19;;;;;;;12.50;3.73;;;9.30;95.70;;;10.69;67.20;100636.28;3078307;46;20493;-70
2023/12/20 09:20:48;;;;;;;8.27;3.77;;;9.30;95.70;;;10.63;67.66;100639.59;3080211;46;20451;-69
2023/12/20 09:24:03;;;;;;;8.97;3.73;;;9.20;95.80;;;10.57;68.07;100647.41;3081356;46;20431;-70
2023/12/20 09:27:17;;;;;;;9.00;3.77;;;9.20;96.00;;;10.54;68.16;100653.81;3079458;46;21036;-70
2023/12/20 09:29:50;;;;;;;12.43;3.93;;;9.20;96.00;;;10.50;68.38;100643.84;3081657;46;20467;-70
2023/12/20 09:32:44;;;;;;;12.67;3.77;;;9.20;96.00;;;10.48;68.37;100635.31;3077582;46;21151;-70
2023/12/20 09:35:20;;;;;;;13.23;3.67;;;9.10;96.00;;;10.46;68.61;100643.34;3078492;46;21116;-70
2023/12/20 09:37:54;;;;;;;17.73;4.10;;;9.10;96.10;;;10.49;68.67;100648.28;3079348;46;20683;-70
2023/12/20 09:40:26;;;;;;;16.63;4.43;;;9.10;96.20;;;10.50;68.84;100643.84;3080216;46;21108;-69
2023/12/20 09:43:14;;;;;;;11.60;4.50;;;9.10;96.30;;;10.50;68.76;100642.03;3078395;46;21049;-71
2023/12/20 09:45:48;;;;;;;14.20;4.40;;;9.10;96.30;;;10.53;68.67;100660.06;3077451;46;20473;-68
2023/12/20 09:48:28;;;;;;;10.87;4.27;;;9.10;96.40;;;10.55;69.01;100704.66;3078521;43;21100;-69
2023/12/20 09:50:58;;;;;;;16.10;4.77;;;9.10;96.40;;;10.60;68.98;100703.09;3078652;46;20459;-70
2023/12/20 09:53:30;;;;;;;12.63;4.23;;;9.10;96.60;;;10.59;68.84;100712.03;3077622;46;20447;-68
2023/12/20 09:56:00;;;;;;;12.37;4.03;;;9.10;96.60;;;10.58;68.58;100720.06;3077755;46;20600;-69
2023/12/20 09:58:28;;;;;;;8.30;3.07;;;9.10;96.40;;;10.53;68.40;100712.69;3076760;46;20462;-69
2023/12/20 10:00:57;;;;;;;9.00;3.07;;;9.10;96.10;;;10.48;68.21;100714.25;3077357;46;21030;-69
2023/12/20 10:03:26;;;;;;;9.23;2.73;;;9.00;95.90;;;10.43;68.00;100722.66;3076824;46;21070;-69
2023/12/20 10:05:58;;;;;;;4.07;1.83;;;9.00;95.80;;;10.36;68.01;100711.19;3078185;46;21234;-69
2023/12/20 10:08:26;;;;;;;2.73;1.50;;;8.90;95.40;;;10.30;67.75;100703.97;3077264;46;20526;-69
2023/12/20 10:10:57;;;;;;;3.17;1.27;;;8.90;95.30;;;10.23;67.74;100703.03;3078852;46;20615;-68
2023/12/20 10:13:25;;;;;;;2.97;1.23;;;8.80;95.20;;;10.18;67.71;100705.34;3078480;46;20509;-69
2023/12/20 10:15:56;;;;;;;5.43;1.20;;;8.80;95.10;;;10.14;67.57;100717.22;3081345;46;21013;-69
2023/12/20 10:18:24;;;;;;;3.97;1.07;;;8.70;95.10;;;10.11;67.63;100702.59;3078840;46;21122;-69
2023/12/20 10:21:09;;;;;;;1.50;0.90;;;8.70;95.10;;;10.08;67.32;100681.03;3079852;46;20590;-69
2023/12/20 10:23:39;;;;;;;5.20;1.50;;;8.60;95.00;;;10.08;67.38;100694.19;3081007;46;20428;-69
2023/12/20 10:26:08;;;;;;;2.87;1.63;;;8.60;94.90;;;10.07;67.09;100706.53;3081135;46;20526;-68
2023/12/20 10:28:37;;;;;;;1.23;0.93;;;8.60;95.00;;;10.09;67.34;100714.25;3080207;46;20501;-69